Terminal Aerodrome Forecast
Issued by NWS

Home | Current Version | Previous Version | Text Only | Print | Product List | Glossary On
Versions: 1 2 3 4 5 6 7 8 9 10 11 12 13 14
892
FTUS43 KIND 251125
TAFLAF
TAF
KLAF 251125Z 2512/2612 14006KT P6SM OVC080 WS020/19035KT
     FM251500 16011G23KT P6SM VCSH OVC090
     FM251800 18012G23KT P6SM VCSH OVC060
     FM252200 16010KT 5SM -SHRA VCTS OVC080CB
     FM260000 14007KT 4SM SHRA VCTS OVC060CB
     FM260300 14006KT 3SM SHRA OVC050
     FM260600 14007KT 2SM -SHRA OVC025
     FM261000 14008KT 3SM -SHRA OVC015
      AMD LTD TO CLD VIS AND WIND TIL 251300=

USA.gov is the U.S. government's official web portal to all federal, state and local government web resources and services.